sensor_id;sensor_type;location;lat;lon;timestamp;P1;durP1;ratioP1;P2;durP2;ratioP2
69750;SDS011;57335;52.288;6.056;2023-07-09T00:01:17;19.83;;;12.05;;
69750;SDS011;57335;52.288;6.056;2023-07-09T00:03:45;19.77;;;13.00;;
69750;SDS011;57335;52.288;6.056;2023-07-09T00:06:12;19.73;;;11.93;;
69750;SDS011;57335;52.288;6.056;2023-07-09T00:08:41;20.00;;;12.40;;
69750;SDS011;57335;52.288;6.056;2023-07-09T00:11:10;18.48;;;11.70;;
69750;SDS011;57335;52.288;6.056;2023-07-09T00:13:36;19.20;;;11.88;;
69750;SDS011;57335;52.288;6.056;2023-07-09T00:16:06;20.17;;;12.90;;
69750;SDS011;57335;52.288;6.056;2023-07-09T00:18:38;17.10;;;10.98;;
69750;SDS011;57335;52.288;6.056;2023-07-09T00:21:04;19.17;;;12.38;;
69750;SDS011;57335;52.288;6.056;2023-07-09T00:23:31;20.10;;;11.68;;
69750;SDS011;57335;52.288;6.056;2023-07-09T00:25:57;22.75;;;13.95;;
69750;SDS011;57335;52.288;6.056;2023-07-09T00:28:24;23.00;;;13.50;;
69750;SDS011;57335;52.288;6.056;2023-07-09T00:30:50;22.80;;;14.85;;
69750;SDS011;57335;52.288;6.056;2023-07-09T00:33:16;22.83;;;14.05;;
69750;SDS011;57335;52.288;6.056;2023-07-09T00:35:43;19.45;;;11.35;;
69750;SDS011;57335;52.288;6.056;2023-07-09T00:38:21;18.88;;;11.00;;
69750;SDS011;57335;52.288;6.056;2023-07-09T00:41:02;16.52;;;11.52;;
69750;SDS011;57335;52.288;6.056;2023-07-09T00:43:31;17.77;;;11.52;;
69750;SDS011;57335;52.288;6.056;2023-07-09T00:46:11;19.65;;;12.00;;
69750;SDS011;57335;52.288;6.056;2023-07-09T00:48:43;21.20;;;12.48;;
69750;SDS011;57335;52.288;6.056;2023-07-09T00:51:13;18.58;;;12.07;;
69750;SDS011;57335;52.288;6.056;2023-07-09T00:53:43;19.48;;;12.30;;
69750;SDS011;57335;52.288;6.056;2023-07-09T00:56:16;20.70;;;14.13;;
69750;SDS011;57335;52.288;6.056;2023-07-09T00:58:49;23.92;;;13.63;;
69750;SDS011;57335;52.288;6.056;2023-07-09T01:01:16;19.35;;;13.23;;
69750;SDS011;57335;52.288;6.056;2023-07-09T01:03:45;21.23;;;11.77;;
69750;SDS011;57335;52.288;6.056;2023-07-09T01:06:15;20.58;;;13.88;;
69750;SDS011;57335;52.288;6.056;2023-07-09T01:08:49;24.17;;;16.10;;
69750;SDS011;57335;52.288;6.056;2023-07-09T01:11:17;22.65;;;14.20;;
69750;SDS011;57335;52.288;6.056;2023-07-09T01:13:45;20.92;;;14.20;;
69750;SDS011;57335;52.288;6.056;2023-07-09T01:16:12;21.45;;;13.77;;
69750;SDS011;57335;52.288;6.056;2023-07-09T01:18:38;21.13;;;13.50;;
69750;SDS011;57335;52.288;6.056;2023-07-09T01:21:07;22.25;;;14.60;;
69750;SDS011;57335;52.288;6.056;2023-07-09T01:23:35;19.70;;;13.00;;
69750;SDS011;57335;52.288;6.056;2023-07-09T01:26:02;22.00;;;15.25;;
69750;SDS011;57335;52.288;6.056;2023-07-09T01:28:29;24.25;;;16.05;;
69750;SDS011;57335;52.288;6.056;2023-07-09T01:30:55;24.08;;;16.27;;
69750;SDS011;57335;52.288;6.056;2023-07-09T01:33:22;31.48;;;19.38;;
69750;SDS011;57335;52.288;6.056;2023-07-09T01:35:48;25.75;;;16.50;;
69750;SDS011;57335;52.288;6.056;2023-07-09T01:38:15;23.15;;;15.75;;
69750;SDS011;57335;52.288;6.056;2023-07-09T01:40:41;24.60;;;14.57;;
69750;SDS011;57335;52.288;6.056;2023-07-09T01:43:07;23.77;;;13.52;;
69750;SDS011;57335;52.288;6.056;2023-07-09T01:45:35;23.50;;;13.50;;
69750;SDS011;57335;52.288;6.056;2023-07-09T01:48:02;19.88;;;13.27;;
69750;SDS011;57335;52.288;6.056;2023-07-09T01:50:29;26.77;;;15.25;;
69750;SDS011;57335;52.288;6.056;2023-07-09T01:52:56;24.65;;;14.82;;
69750;SDS011;57335;52.288;6.056;2023-07-09T01:55:23;22.08;;;13.48;;
69750;SDS011;57335;52.288;6.056;2023-07-09T01:57:49;22.33;;;12.98;;
69750;SDS011;57335;52.288;6.056;2023-07-09T02:00:16;24.80;;;15.23;;
69750;SDS011;57335;52.288;6.056;2023-07-09T02:02:43;22.75;;;13.50;;
69750;SDS011;57335;52.288;6.056;2023-07-09T02:05:12;25.65;;;13.70;;
69750;SDS011;57335;52.288;6.056;2023-07-09T02:07:40;23.90;;;13.80;;
69750;SDS011;57335;52.288;6.056;2023-07-09T02:10:07;19.05;;;12.18;;
69750;SDS011;57335;52.288;6.056;2023-07-09T02:12:34;19.05;;;12.50;;
69750;SDS011;57335;52.288;6.056;2023-07-09T02:15:01;23.67;;;15.48;;
69750;SDS011;57335;52.288;6.056;2023-07-09T02:17:28;22.63;;;14.75;;
69750;SDS011;57335;52.288;6.056;2023-07-09T02:19:54;24.05;;;14.95;;
69750;SDS011;57335;52.288;6.056;2023-07-09T02:22:21;24.10;;;15.75;;
69750;SDS011;57335;52.288;6.056;2023-07-09T02:24:47;19.92;;;13.63;;
69750;SDS011;57335;52.288;6.056;2023-07-09T02:27:15;22.35;;;14.70;;
69750;SDS011;57335;52.288;6.056;2023-07-09T02:29:43;26.58;;;16.45;;
69750;SDS011;57335;52.288;6.056;2023-07-09T02:32:10;24.40;;;15.75;;
69750;SDS011;57335;52.288;6.056;2023-07-09T02:34:43;24.13;;;14.63;;
69750;SDS011;57335;52.288;6.056;2023-07-09T02:37:09;21.95;;;15.27;;
69750;SDS011;57335;52.288;6.056;2023-07-09T02:39:36;22.90;;;12.90;;
69750;SDS011;57335;52.288;6.056;2023-07-09T02:42:02;25.63;;;16.48;;
69750;SDS011;57335;52.288;6.056;2023-07-09T02:44:29;24.85;;;16.13;;
69750;SDS011;57335;52.288;6.056;2023-07-09T02:46:55;22.13;;;15.23;;
69750;SDS011;57335;52.288;6.056;2023-07-09T02:49:22;20.70;;;13.80;;
69750;SDS011;57335;52.288;6.056;2023-07-09T02:51:48;21.13;;;14.95;;
69750;SDS011;57335;52.288;6.056;2023-07-09T02:54:14;27.42;;;17.70;;
69750;SDS011;57335;52.288;6.056;2023-07-09T02:56:41;29.90;;;19.20;;
69750;SDS011;57335;52.288;6.056;2023-07-09T02:59:07;31.40;;;19.40;;
69750;SDS011;57335;52.288;6.056;2023-07-09T03:01:34;28.70;;;17.30;;
69750;SDS011;57335;52.288;6.056;2023-07-09T03:04:01;26.05;;;15.02;;
69750;SDS011;57335;52.288;6.056;2023-07-09T03:06:28;25.02;;;16.52;;
69750;SDS011;57335;52.288;6.056;2023-07-09T03:08:56;25.40;;;16.10;;
69750;SDS011;57335;52.288;6.056;2023-07-09T03:11:22;25.90;;;16.45;;
69750;SDS011;57335;52.288;6.056;2023-07-09T03:13:48;26.15;;;17.10;;
69750;SDS011;57335;52.288;6.056;2023-07-09T03:16:15;27.50;;;18.73;;
69750;SDS011;57335;52.288;6.056;2023-07-09T03:18:42;25.95;;;16.02;;
69750;SDS011;57335;52.288;6.056;2023-07-09T03:21:09;29.05;;;18.90;;
69750;SDS011;57335;52.288;6.056;2023-07-09T03:23:35;27.70;;;17.50;;
69750;SDS011;57335;52.288;6.056;2023-07-09T03:26:02;27.83;;;19.33;;
69750;SDS011;57335;52.288;6.056;2023-07-09T03:28:30;26.23;;;18.00;;
69750;SDS011;57335;52.288;6.056;2023-07-09T03:30:57;25.83;;;16.48;;
69750;SDS011;57335;52.288;6.056;2023-07-09T03:33:24;28.27;;;17.45;;
69750;SDS011;57335;52.288;6.056;2023-07-09T03:35:51;28.08;;;19.38;;
69750;SDS011;57335;52.288;6.056;2023-07-09T03:38:18;33.85;;;21.50;;
69750;SDS011;57335;52.288;6.056;2023-07-09T03:40:44;28.20;;;17.70;;
69750;SDS011;57335;52.288;6.056;2023-07-09T03:43:11;25.77;;;17.30;;
69750;SDS011;57335;52.288;6.056;2023-07-09T03:45:37;27.48;;;18.65;;
69750;SDS011;57335;52.288;6.056;2023-07-09T03:48:04;24.92;;;17.10;;
69750;SDS011;57335;52.288;6.056;2023-07-09T03:50:32;23.23;;;16.13;;
69750;SDS011;57335;52.288;6.056;2023-07-09T03:52:59;23.67;;;14.88;;
69750;SDS011;57335;52.288;6.056;2023-07-09T03:55:25;22.70;;;15.68;;
69750;SDS011;57335;52.288;6.056;2023-07-09T03:57:53;25.52;;;17.33;;
69750;SDS011;57335;52.288;6.056;2023-07-09T04:00:20;29.58;;;17.65;;
69750;SDS011;57335;52.288;6.056;2023-07-09T04:02:47;30.08;;;18.23;;
69750;SDS011;57335;52.288;6.056;2023-07-09T04:05:14;22.50;;;16.25;;
69750;SDS011;57335;52.288;6.056;2023-07-09T04:07:40;26.50;;;17.45;;
69750;SDS011;57335;52.288;6.056;2023-07-09T04:10:07;29.90;;;19.75;;
69750;SDS011;57335;52.288;6.056;2023-07-09T04:12:33;27.58;;;18.95;;
69750;SDS011;57335;52.288;6.056;2023-07-09T04:15:00;30.63;;;18.85;;
69750;SDS011;57335;52.288;6.056;2023-07-09T04:17:26;26.85;;;18.50;;
69750;SDS011;57335;52.288;6.056;2023-07-09T04:19:52;23.05;;;15.60;;
69750;SDS011;57335;52.288;6.056;2023-07-09T04:22:19;27.55;;;18.10;;
69750;SDS011;57335;52.288;6.056;2023-07-09T04:24:45;27.23;;;18.02;;
69750;SDS011;57335;52.288;6.056;2023-07-09T04:27:12;27.15;;;18.27;;
69750;SDS011;57335;52.288;6.056;2023-07-09T04:29:39;23.70;;;17.58;;
69750;SDS011;57335;52.288;6.056;2023-07-09T04:32:06;23.75;;;16.48;;
69750;SDS011;57335;52.288;6.056;2023-07-09T04:34:34;22.40;;;16.13;;
69750;SDS011;57335;52.288;6.056;2023-07-09T04:37:01;23.85;;;16.17;;
69750;SDS011;57335;52.288;6.056;2023-07-09T04:39:27;24.73;;;16.75;;
69750;SDS011;57335;52.288;6.056;2023-07-09T04:41:53;23.50;;;16.05;;
69750;SDS011;57335;52.288;6.056;2023-07-09T04:44:20;22.30;;;15.68;;
69750;SDS011;57335;52.288;6.056;2023-07-09T04:46:46;21.33;;;15.02;;
69750;SDS011;57335;52.288;6.056;2023-07-09T04:49:13;20.38;;;13.15;;
69750;SDS011;57335;52.288;6.056;2023-07-09T04:51:39;25.58;;;14.13;;
69750;SDS011;57335;52.288;6.056;2023-07-09T04:54:05;22.92;;;15.38;;
69750;SDS011;57335;52.288;6.056;2023-07-09T04:56:32;22.10;;;13.73;;
69750;SDS011;57335;52.288;6.056;2023-07-09T04:58:58;19.98;;;13.68;;
69750;SDS011;57335;52.288;6.056;2023-07-09T05:01:25;18.48;;;12.10;;
69750;SDS011;57335;52.288;6.056;2023-07-09T05:03:51;18.58;;;12.82;;
69750;SDS011;57335;52.288;6.056;2023-07-09T05:06:18;19.52;;;12.77;;
69750;SDS011;57335;52.288;6.056;2023-07-09T05:08:44;19.45;;;12.48;;
69750;SDS011;57335;52.288;6.056;2023-07-09T05:11:10;19.55;;;12.77;;
69750;SDS011;57335;52.288;6.056;2023-07-09T05:13:37;18.83;;;12.77;;
69750;SDS011;57335;52.288;6.056;2023-07-09T05:16:03;20.48;;;13.27;;
69750;SDS011;57335;52.288;6.056;2023-07-09T05:18:30;19.55;;;12.55;;
69750;SDS011;57335;52.288;6.056;2023-07-09T05:20:56;17.58;;;12.32;;
69750;SDS011;57335;52.288;6.056;2023-07-09T05:23:24;19.15;;;12.68;;
69750;SDS011;57335;52.288;6.056;2023-07-09T05:26:00;18.00;;;11.75;;
69750;SDS011;57335;52.288;6.056;2023-07-09T05:28:28;17.83;;;12.48;;
69750;SDS011;57335;52.288;6.056;2023-07-09T05:30:56;17.88;;;12.20;;
69750;SDS011;57335;52.288;6.056;2023-07-09T05:33:22;20.05;;;11.98;;
69750;SDS011;57335;52.288;6.056;2023-07-09T05:35:49;17.38;;;11.77;;
69750;SDS011;57335;52.288;6.056;2023-07-09T05:38:15;18.02;;;12.00;;
69750;SDS011;57335;52.288;6.056;2023-07-09T05:40:42;19.27;;;12.35;;
69750;SDS011;57335;52.288;6.056;2023-07-09T05:43:09;19.52;;;12.00;;
69750;SDS011;57335;52.288;6.056;2023-07-09T05:45:39;21.80;;;12.88;;
69750;SDS011;57335;52.288;6.056;2023-07-09T05:48:06;17.95;;;11.93;;
69750;SDS011;57335;52.288;6.056;2023-07-09T05:50:34;18.60;;;11.88;;
69750;SDS011;57335;52.288;6.056;2023-07-09T05:53:01;18.27;;;11.55;;
69750;SDS011;57335;52.288;6.056;2023-07-09T05:55:27;18.48;;;12.25;;
69750;SDS011;57335;52.288;6.056;2023-07-09T05:57:53;17.52;;;11.32;;
69750;SDS011;57335;52.288;6.056;2023-07-09T06:00:20;18.55;;;11.93;;
69750;SDS011;57335;52.288;6.056;2023-07-09T06:02:47;18.75;;;12.30;;
69750;SDS011;57335;52.288;6.056;2023-07-09T06:05:13;19.30;;;11.98;;
69750;SDS011;57335;52.288;6.056;2023-07-09T06:07:40;17.00;;;11.10;;
69750;SDS011;57335;52.288;6.056;2023-07-09T06:10:07;17.75;;;12.65;;
69750;SDS011;57335;52.288;6.056;2023-07-09T06:12:34;18.00;;;11.68;;
69750;SDS011;57335;52.288;6.056;2023-07-09T06:15:01;20.13;;;12.32;;
69750;SDS011;57335;52.288;6.056;2023-07-09T06:17:28;17.85;;;12.55;;
69750;SDS011;57335;52.288;6.056;2023-07-09T06:19:54;16.25;;;11.40;;
69750;SDS011;57335;52.288;6.056;2023-07-09T06:22:24;23.35;;;12.82;;
69750;SDS011;57335;52.288;6.056;2023-07-09T06:24:50;19.60;;;12.70;;
69750;SDS011;57335;52.288;6.056;2023-07-09T06:27:17;17.40;;;12.68;;
69750;SDS011;57335;52.288;6.056;2023-07-09T06:29:43;18.85;;;13.23;;
69750;SDS011;57335;52.288;6.056;2023-07-09T06:32:09;18.88;;;12.18;;
69750;SDS011;57335;52.288;6.056;2023-07-09T06:34:36;18.67;;;12.35;;
69750;SDS011;57335;52.288;6.056;2023-07-09T06:37:02;17.50;;;11.90;;
69750;SDS011;57335;52.288;6.056;2023-07-09T06:39:29;17.00;;;11.40;;
69750;SDS011;57335;52.288;6.056;2023-07-09T06:41:55;16.75;;;11.70;;
69750;SDS011;57335;52.288;6.056;2023-07-09T06:44:22;15.95;;;10.77;;
69750;SDS011;57335;52.288;6.056;2023-07-09T06:46:48;16.48;;;10.75;;
69750;SDS011;57335;52.288;6.056;2023-07-09T06:49:14;17.50;;;10.45;;
69750;SDS011;57335;52.288;6.056;2023-07-09T06:51:41;16.38;;;10.30;;
69750;SDS011;57335;52.288;6.056;2023-07-09T06:54:08;15.65;;;10.68;;
69750;SDS011;57335;52.288;6.056;2023-07-09T06:56:34;16.58;;;10.90;;
69750;SDS011;57335;52.288;6.056;2023-07-09T06:59:01;15.52;;;10.65;;
69750;SDS011;57335;52.288;6.056;2023-07-09T07:01:27;16.75;;;10.85;;
69750;SDS011;57335;52.288;6.056;2023-07-09T07:03:53;17.38;;;10.57;;
69750;SDS011;57335;52.288;6.056;2023-07-09T07:06:20;17.05;;;9.88;;
69750;SDS011;57335;52.288;6.056;2023-07-09T07:08:46;16.55;;;10.18;;
69750;SDS011;57335;52.288;6.056;2023-07-09T07:11:13;15.35;;;10.38;;
69750;SDS011;57335;52.288;6.056;2023-07-09T07:13:39;15.38;;;10.35;;
69750;SDS011;57335;52.288;6.056;2023-07-09T07:16:08;18.77;;;10.68;;
69750;SDS011;57335;52.288;6.056;2023-07-09T07:18:36;15.27;;;10.88;;
69750;SDS011;57335;52.288;6.056;2023-07-09T07:21:03;15.98;;;9.93;;
69750;SDS011;57335;52.288;6.056;2023-07-09T07:23:31;14.77;;;10.23;;
69750;SDS011;57335;52.288;6.056;2023-07-09T07:25:57;15.30;;;11.02;;
69750;SDS011;57335;52.288;6.056;2023-07-09T07:28:24;15.45;;;10.32;;
69750;SDS011;57335;52.288;6.056;2023-07-09T07:31:03;14.13;;;9.77;;
69750;SDS011;57335;52.288;6.056;2023-07-09T07:33:31;15.45;;;10.70;;
69750;SDS011;57335;52.288;6.056;2023-07-09T07:35:57;16.33;;;9.88;;
69750;SDS011;57335;52.288;6.056;2023-07-09T07:38:27;15.35;;;10.07;;
69750;SDS011;57335;52.288;6.056;2023-07-09T07:40:53;17.40;;;10.45;;
69750;SDS011;57335;52.288;6.056;2023-07-09T07:43:20;16.30;;;10.18;;
69750;SDS011;57335;52.288;6.056;2023-07-09T07:45:47;16.08;;;10.38;;
69750;SDS011;57335;52.288;6.056;2023-07-09T07:48:14;15.30;;;10.52;;
69750;SDS011;57335;52.288;6.056;2023-07-09T07:50:40;14.68;;;10.10;;
69750;SDS011;57335;52.288;6.056;2023-07-09T07:53:07;15.10;;;9.75;;
69750;SDS011;57335;52.288;6.056;2023-07-09T07:55:34;15.77;;;10.48;;
69750;SDS011;57335;52.288;6.056;2023-07-09T07:58:02;14.98;;;10.05;;
69750;SDS011;57335;52.288;6.056;2023-07-09T08:00:29;15.20;;;10.02;;
69750;SDS011;57335;52.288;6.056;2023-07-09T08:02:56;15.73;;;9.65;;
69750;SDS011;57335;52.288;6.056;2023-07-09T08:05:23;14.73;;;9.57;;
69750;SDS011;57335;52.288;6.056;2023-07-09T08:07:49;14.68;;;8.93;;
69750;SDS011;57335;52.288;6.056;2023-07-09T08:10:15;13.02;;;8.80;;
69750;SDS011;57335;52.288;6.056;2023-07-09T08:12:42;15.30;;;9.48;;
69750;SDS011;57335;52.288;6.056;2023-07-09T08:15:08;13.15;;;8.98;;
69750;SDS011;57335;52.288;6.056;2023-07-09T08:17:35;13.70;;;8.43;;
69750;SDS011;57335;52.288;6.056;2023-07-09T08:20:02;13.57;;;9.07;;
69750;SDS011;57335;52.288;6.056;2023-07-09T08:22:28;12.88;;;8.43;;
69750;SDS011;57335;52.288;6.056;2023-07-09T08:24:55;13.38;;;8.27;;
69750;SDS011;57335;52.288;6.056;2023-07-09T08:27:21;14.13;;;8.15;;
69750;SDS011;57335;52.288;6.056;2023-07-09T08:29:47;12.07;;;8.10;;
69750;SDS011;57335;52.288;6.056;2023-07-09T08:32:14;16.27;;;7.50;;
69750;SDS011;57335;52.288;6.056;2023-07-09T08:34:41;13.73;;;7.85;;
69750;SDS011;57335;52.288;6.056;2023-07-09T08:37:28;13.15;;;8.15;;
69750;SDS011;57335;52.288;6.056;2023-07-09T08:39:54;13.65;;;7.53;;
69750;SDS011;57335;52.288;6.056;2023-07-09T08:42:24;13.30;;;7.30;;
69750;SDS011;57335;52.288;6.056;2023-07-09T08:45:10;11.60;;;6.88;;
69750;SDS011;57335;52.288;6.056;2023-07-09T08:50:21;12.73;;;7.50;;
69750;SDS011;57335;52.288;6.056;2023-07-09T08:52:51;13.80;;;7.72;;
69750;SDS011;57335;52.288;6.056;2023-07-09T08:55:21;11.88;;;7.38;;
69750;SDS011;57335;52.288;6.056;2023-07-09T08:57:55;12.52;;;7.25;;
69750;SDS011;57335;52.288;6.056;2023-07-09T09:03:10;11.90;;;6.65;;
69750;SDS011;57335;52.288;6.056;2023-07-09T09:05:42;12.10;;;6.78;;
69750;SDS011;57335;52.288;6.056;2023-07-09T09:08:28;12.45;;;6.90;;
69750;SDS011;57335;52.288;6.056;2023-07-09T09:11:21;12.35;;;6.40;;
69750;SDS011;57335;52.288;6.056;2023-07-09T09:13:58;9.73;;;6.07;;
69750;SDS011;57335;52.288;6.056;2023-07-09T09:16:31;11.88;;;6.63;;
69750;SDS011;57335;52.288;6.056;2023-07-09T09:19:08;11.88;;;7.38;;
69750;SDS011;57335;52.288;6.056;2023-07-09T09:21:54;10.80;;;6.22;;
69750;SDS011;57335;52.288;6.056;2023-07-09T09:24:36;10.20;;;5.90;;
69750;SDS011;57335;52.288;6.056;2023-07-09T09:27:09;12.98;;;6.07;;
69750;SDS011;57335;52.288;6.056;2023-07-09T09:29:35;10.63;;;5.47;;
69750;SDS011;57335;52.288;6.056;2023-07-09T09:32:04;12.13;;;6.10;;
69750;SDS011;57335;52.288;6.056;2023-07-09T09:34:44;11.10;;;6.38;;
69750;SDS011;57335;52.288;6.056;2023-07-09T09:37:10;12.27;;;6.18;;
69750;SDS011;57335;52.288;6.056;2023-07-09T09:39:38;10.35;;;6.13;;
69750;SDS011;57335;52.288;6.056;2023-07-09T09:42:10;10.30;;;6.35;;
69750;SDS011;57335;52.288;6.056;2023-07-09T09:44:42;10.88;;;6.53;;
69750;SDS011;57335;52.288;6.056;2023-07-09T09:47:10;10.88;;;6.10;;
69750;SDS011;57335;52.288;6.056;2023-07-09T09:49:41;12.32;;;5.72;;
69750;SDS011;57335;52.288;6.056;2023-07-09T09:52:16;11.45;;;5.97;;
69750;SDS011;57335;52.288;6.056;2023-07-09T09:54:46;11.45;;;6.03;;
69750;SDS011;57335;52.288;6.056;2023-07-09T09:57:19;11.68;;;5.93;;
69750;SDS011;57335;52.288;6.056;2023-07-09T09:59:47;11.55;;;6.28;;
69750;SDS011;57335;52.288;6.056;2023-07-09T10:02:15;11.20;;;5.55;;
69750;SDS011;57335;52.288;6.056;2023-07-09T10:04:45;11.60;;;6.20;;
69750;SDS011;57335;52.288;6.056;2023-07-09T10:07:16;11.93;;;6.38;;
69750;SDS011;57335;52.288;6.056;2023-07-09T10:09:53;12.77;;;5.95;;
69750;SDS011;57335;52.288;6.056;2023-07-09T10:12:35;10.52;;;5.97;;
69750;SDS011;57335;52.288;6.056;2023-07-09T10:17:57;10.98;;;6.20;;
69750;SDS011;57335;52.288;6.056;2023-07-09T10:23:48;11.15;;;5.97;;
69750;SDS011;57335;52.288;6.056;2023-07-09T10:31:34;12.13;;;5.72;;
69750;SDS011;57335;52.288;6.056;2023-07-09T10:34:41;10.75;;;5.55;;
69750;SDS011;57335;52.288;6.056;2023-07-09T10:40:31;10.48;;;6.05;;
69750;SDS011;57335;52.288;6.056;2023-07-09T10:43:02;12.65;;;5.97;;
69750;SDS011;57335;52.288;6.056;2023-07-09T10:45:39;10.30;;;5.97;;
69750;SDS011;57335;52.288;6.056;2023-07-09T10:48:20;11.82;;;5.45;;
69750;SDS011;57335;52.288;6.056;2023-07-09T10:50:59;11.75;;;5.85;;
69750;SDS011;57335;52.288;6.056;2023-07-09T10:53:32;10.52;;;5.50;;
69750;SDS011;57335;52.288;6.056;2023-07-09T10:56:14;11.18;;;6.03;;
69750;SDS011;57335;52.288;6.056;2023-07-09T10:59:04;11.35;;;5.90;;
69750;SDS011;57335;52.288;6.056;2023-07-09T11:01:43;9.95;;;5.65;;
69750;SDS011;57335;52.288;6.056;2023-07-09T11:04:35;10.48;;;5.93;;
69750;SDS011;57335;52.288;6.056;2023-07-09T11:07:06;9.52;;;5.90;;
69750;SDS011;57335;52.288;6.056;2023-07-09T11:09:38;12.07;;;5.82;;
69750;SDS011;57335;52.288;6.056;2023-07-09T11:12:10;11.82;;;5.90;;
69750;SDS011;57335;52.288;6.056;2023-07-09T11:14:47;10.95;;;5.57;;
69750;SDS011;57335;52.288;6.056;2023-07-09T11:17:15;9.98;;;5.85;;
69750;SDS011;57335;52.288;6.056;2023-07-09T11:19:46;10.60;;;5.93;;
69750;SDS011;57335;52.288;6.056;2023-07-09T11:22:20;10.80;;;5.47;;
69750;SDS011;57335;52.288;6.056;2023-07-09T11:27:44;9.43;;;5.20;;
69750;SDS011;57335;52.288;6.056;2023-07-09T11:30:19;9.88;;;5.70;;
69750;SDS011;57335;52.288;6.056;2023-07-09T11:32:54;9.98;;;4.88;;
69750;SDS011;57335;52.288;6.056;2023-07-09T11:35:47;9.73;;;5.03;;
69750;SDS011;57335;52.288;6.056;2023-07-09T11:38:16;12.13;;;5.43;;
69750;SDS011;57335;52.288;6.056;2023-07-09T11:40:46;10.77;;;5.47;;
69750;SDS011;57335;52.288;6.056;2023-07-09T11:43:27;12.48;;;5.78;;
69750;SDS011;57335;52.288;6.056;2023-07-09T11:46:14;9.85;;;5.30;;
69750;SDS011;57335;52.288;6.056;2023-07-09T11:48:44;10.15;;;5.13;;
69750;SDS011;57335;52.288;6.056;2023-07-09T11:51:15;10.57;;;5.03;;
69750;SDS011;57335;52.288;6.056;2023-07-09T11:53:45;8.93;;;5.25;;
69750;SDS011;57335;52.288;6.056;2023-07-09T11:56:17;13.00;;;5.90;;
69750;SDS011;57335;52.288;6.056;2023-07-09T11:58:52;9.80;;;5.22;;
69750;SDS011;57335;52.288;6.056;2023-07-09T12:01:22;10.63;;;5.10;;
69750;SDS011;57335;52.288;6.056;2023-07-09T12:08:50;10.35;;;4.22;;
69750;SDS011;57335;52.288;6.056;2023-07-09T12:11:42;9.88;;;4.30;;
69750;SDS011;57335;52.288;6.056;2023-07-09T12:14:14;8.52;;;4.30;;
69750;SDS011;57335;52.288;6.056;2023-07-09T12:16:43;9.18;;;4.53;;
69750;SDS011;57335;52.288;6.056;2023-07-09T12:19:12;10.20;;;5.07;;
69750;SDS011;57335;52.288;6.056;2023-07-09T12:21:42;9.70;;;4.47;;
69750;SDS011;57335;52.288;6.056;2023-07-09T12:24:21;8.82;;;4.47;;
69750;SDS011;57335;52.288;6.056;2023-07-09T12:26:55;9.30;;;4.93;;
69750;SDS011;57335;52.288;6.056;2023-07-09T12:29:28;10.20;;;5.35;;
69750;SDS011;57335;52.288;6.056;2023-07-09T12:31:56;10.60;;;5.40;;
69750;SDS011;57335;52.288;6.056;2023-07-09T12:34:24;10.68;;;5.22;;
69750;SDS011;57335;52.288;6.056;2023-07-09T12:36:51;9.48;;;4.40;;
69750;SDS011;57335;52.288;6.056;2023-07-09T12:39:29;10.93;;;5.05;;
69750;SDS011;57335;52.288;6.056;2023-07-09T12:41:59;9.57;;;5.05;;
69750;SDS011;57335;52.288;6.056;2023-07-09T12:44:28;10.85;;;5.20;;
69750;SDS011;57335;52.288;6.056;2023-07-09T12:46:57;9.60;;;4.80;;
69750;SDS011;57335;52.288;6.056;2023-07-09T12:49:25;9.80;;;4.60;;
69750;SDS011;57335;52.288;6.056;2023-07-09T12:51:56;10.45;;;4.97;;
69750;SDS011;57335;52.288;6.056;2023-07-09T12:54:24;10.73;;;4.93;;
69750;SDS011;57335;52.288;6.056;2023-07-09T12:56:51;10.77;;;5.20;;
69750;SDS011;57335;52.288;6.056;2023-07-09T12:59:20;11.90;;;5.63;;
69750;SDS011;57335;52.288;6.056;2023-07-09T13:04:30;10.73;;;5.57;;
69750;SDS011;57335;52.288;6.056;2023-07-09T13:06:58;11.05;;;5.55;;
69750;SDS011;57335;52.288;6.056;2023-07-09T13:09:25;9.43;;;4.90;;
69750;SDS011;57335;52.288;6.056;2023-07-09T13:11:52;9.48;;;4.60;;
69750;SDS011;57335;52.288;6.056;2023-07-09T13:14:24;10.80;;;5.50;;
69750;SDS011;57335;52.288;6.056;2023-07-09T13:16:52;13.60;;;5.30;;
69750;SDS011;57335;52.288;6.056;2023-07-09T13:19:28;9.98;;;5.18;;
69750;SDS011;57335;52.288;6.056;2023-07-09T13:21:54;11.60;;;5.38;;
69750;SDS011;57335;52.288;6.056;2023-07-09T13:24:24;9.75;;;5.25;;
69750;SDS011;57335;52.288;6.056;2023-07-09T13:26:54;11.80;;;5.45;;
69750;SDS011;57335;52.288;6.056;2023-07-09T13:29:21;10.60;;;5.20;;
69750;SDS011;57335;52.288;6.056;2023-07-09T13:31:48;11.77;;;5.18;;
69750;SDS011;57335;52.288;6.056;2023-07-09T13:34:22;10.05;;;5.53;;
69750;SDS011;57335;52.288;6.056;2023-07-09T13:36:50;10.43;;;5.40;;
69750;SDS011;57335;52.288;6.056;2023-07-09T13:39:17;12.05;;;5.18;;
69750;SDS011;57335;52.288;6.056;2023-07-09T13:41:44;12.38;;;5.63;;
69750;SDS011;57335;52.288;6.056;2023-07-09T13:44:13;11.18;;;5.35;;
69750;SDS011;57335;52.288;6.056;2023-07-09T13:46:42;10.23;;;5.45;;
69750;SDS011;57335;52.288;6.056;2023-07-09T13:49:10;12.02;;;5.20;;
69750;SDS011;57335;52.288;6.056;2023-07-09T13:51:38;12.00;;;5.32;;
69750;SDS011;57335;52.288;6.056;2023-07-09T13:54:06;11.00;;;4.90;;
69750;SDS011;57335;52.288;6.056;2023-07-09T13:56:41;13.07;;;5.03;;
69750;SDS011;57335;52.288;6.056;2023-07-09T13:59:11;9.52;;;5.00;;
69750;SDS011;57335;52.288;6.056;2023-07-09T14:01:39;12.88;;;5.15;;
69750;SDS011;57335;52.288;6.056;2023-07-09T14:04:08;9.85;;;4.85;;
69750;SDS011;57335;52.288;6.056;2023-07-09T14:06:37;12.07;;;5.18;;
69750;SDS011;57335;52.288;6.056;2023-07-09T14:09:03;12.43;;;4.95;;
69750;SDS011;57335;52.288;6.056;2023-07-09T14:11:30;10.77;;;5.38;;
69750;SDS011;57335;52.288;6.056;2023-07-09T14:13:56;10.45;;;6.38;;
69750;SDS011;57335;52.288;6.056;2023-07-09T14:16:23;10.88;;;6.00;;
69750;SDS011;57335;52.288;6.056;2023-07-09T14:18:49;12.65;;;6.78;;
69750;SDS011;57335;52.288;6.056;2023-07-09T14:21:18;11.10;;;5.93;;
69750;SDS011;57335;52.288;6.056;2023-07-09T14:23:49;11.77;;;6.57;;
69750;SDS011;57335;52.288;6.056;2023-07-09T14:26:16;11.45;;;6.63;;
69750;SDS011;57335;52.288;6.056;2023-07-09T14:28:42;14.07;;;6.75;;
69750;SDS011;57335;52.288;6.056;2023-07-09T14:31:13;12.77;;;5.50;;
69750;SDS011;57335;52.288;6.056;2023-07-09T14:33:54;11.18;;;5.10;;
69750;SDS011;57335;52.288;6.056;2023-07-09T14:36:30;9.82;;;5.63;;
69750;SDS011;57335;52.288;6.056;2023-07-09T14:38:57;9.25;;;4.60;;
69750;SDS011;57335;52.288;6.056;2023-07-09T14:41:24;11.48;;;4.68;;
69750;SDS011;57335;52.288;6.056;2023-07-09T14:43:53;10.82;;;4.30;;
69750;SDS011;57335;52.288;6.056;2023-07-09T14:46:23;9.18;;;4.60;;
69750;SDS011;57335;52.288;6.056;2023-07-09T14:48:49;8.48;;;3.78;;
69750;SDS011;57335;52.288;6.056;2023-07-09T14:51:16;7.80;;;4.13;;
69750;SDS011;57335;52.288;6.056;2023-07-09T14:53:42;10.25;;;3.97;;
69750;SDS011;57335;52.288;6.056;2023-07-09T14:56:09;8.85;;;4.03;;
69750;SDS011;57335;52.288;6.056;2023-07-09T14:58:38;7.78;;;3.50;;
69750;SDS011;57335;52.288;6.056;2023-07-09T15:01:04;7.93;;;3.53;;
69750;SDS011;57335;52.288;6.056;2023-07-09T15:03:36;8.85;;;3.35;;
69750;SDS011;57335;52.288;6.056;2023-07-09T15:06:02;8.05;;;3.47;;
69750;SDS011;57335;52.288;6.056;2023-07-09T15:08:28;8.32;;;3.42;;
69750;SDS011;57335;52.288;6.056;2023-07-09T15:10:55;9.20;;;3.38;;